createdAt,value
2023-03-03T00:01:25.370Z,13.43
2023-03-03T00:04:26.877Z,12.35
2023-03-03T00:07:28.417Z,11.18
2023-03-03T00:10:29.969Z,15.02
2023-03-03T00:13:32.109Z,13.02
2023-03-03T00:16:40.665Z,14.55
2023-03-03T00:19:42.285Z,13.85
2023-03-03T00:22:43.905Z,13.40
2023-03-03T00:25:45.837Z,13.95
2023-03-03T00:28:48.713Z,11.47
2023-03-03T00:31:50.210Z,13.82
2023-03-03T00:34:53.130Z,12.73
2023-03-03T00:37:56.493Z,12.38
2023-03-03T00:40:57.975Z,11.95
2023-03-03T00:43:59.487Z,12.50
2023-03-03T00:47:11.252Z,12.80
2023-03-03T00:50:12.558Z,12.88
2023-03-03T00:53:17.218Z,13.95
2023-03-03T00:56:18.737Z,12.27
2023-03-03T00:59:20.303Z,11.82
2023-03-03T01:02:21.867Z,12.10
2023-03-03T01:05:23.376Z,11.32
2023-03-03T01:08:24.874Z,11.43
2023-03-03T01:11:26.666Z,12.23
2023-03-03T01:14:28.220Z,11.05
2023-03-03T01:17:29.749Z,11.18
2023-03-03T01:20:31.225Z,11.35
2023-03-03T01:23:32.836Z,12.35
2023-03-03T01:26:34.326Z,12.52
2023-03-03T01:29:35.830Z,10.95
2023-03-03T01:32:37.369Z,11.93
2023-03-03T01:35:43.863Z,11.20
2023-03-03T01:38:45.400Z,12.70
2023-03-03T01:41:46.928Z,11.55
2023-03-03T01:44:48.447Z,13.15
2023-03-03T01:48:03.292Z,12.55
2023-03-03T01:51:26.297Z,12.20
2023-03-03T01:54:34.202Z,12.45
2023-03-03T01:57:38.272Z,11.20
2023-03-03T02:00:41.360Z,12.25
2023-03-03T02:03:43.656Z,11.45
2023-03-03T02:06:47.988Z,11.25
2023-03-03T02:09:57.237Z,12.30
2023-03-03T02:12:59.914Z,11.93
2023-03-03T02:16:01.424Z,12.00
2023-03-03T02:19:04.834Z,12.05
2023-03-03T02:22:06.321Z,12.02
2023-03-03T02:25:08.543Z,12.20
2023-03-03T02:28:10.113Z,12.40
2023-03-03T02:31:15.585Z,11.85
2023-03-03T02:34:17.712Z,11.85
2023-03-03T02:37:19.398Z,11.60
2023-03-03T02:40:20.922Z,12.07
2023-03-03T02:43:22.670Z,11.52
2023-03-03T02:46:24.208Z,11.63
2023-03-03T02:49:32.090Z,11.85
2023-03-03T02:52:33.565Z,11.23
2023-03-03T02:55:35.067Z,12.63
2023-03-03T02:58:37.098Z,12.32
2023-03-03T03:01:38.704Z,12.63
2023-03-03T03:04:40.291Z,11.20
2023-03-03T03:07:41.873Z,13.32
2023-03-03T03:10:43.411Z,45.72
2023-03-03T03:13:45.088Z,47.35
2023-03-03T03:16:46.621Z,42.08
2023-03-03T03:19:48.144Z,27.65
2023-03-03T03:22:49.680Z,29.85
2023-03-03T03:25:51.169Z,24.42
2023-03-03T03:28:52.767Z,15.40
2023-03-03T03:31:54.309Z,16.45
2023-03-03T03:34:55.814Z,16.73
2023-03-03T03:37:57.349Z,14.63
2023-03-03T03:40:58.905Z,12.98
2023-03-03T03:44:00.373Z,11.73
2023-03-03T03:47:01.893Z,12.65
2023-03-03T03:50:03.585Z,11.20
2023-03-03T03:53:05.955Z,11.90
2023-03-03T03:56:07.750Z,14.25
2023-03-03T03:59:09.243Z,13.90
2023-03-03T04:02:10.908Z,22.35
2023-03-03T04:05:12.514Z,20.80
2023-03-03T04:08:14.000Z,24.20
2023-03-03T04:11:15.518Z,14.82
2023-03-03T04:14:17.019Z,14.45
2023-03-03T04:17:22.306Z,17.67
2023-03-03T04:20:23.787Z,14.48
2023-03-03T04:23:25.263Z,12.15
2023-03-03T04:26:26.890Z,11.98
2023-03-03T04:29:28.368Z,12.90
2023-03-03T04:32:30.462Z,11.55
2023-03-03T04:35:32.008Z,13.15
2023-03-03T04:38:33.510Z,13.50
2023-03-03T04:41:35.324Z,13.57
2023-03-03T04:44:36.930Z,13.98
2023-03-03T04:47:38.411Z,13.30
2023-03-03T04:50:39.889Z,12.52
2023-03-03T04:53:41.406Z,12.07
2023-03-03T04:56:42.955Z,13.43
2023-03-03T04:59:44.586Z,13.43
2023-03-03T05:02:47.472Z,18.02
2023-03-03T05:05:48.965Z,25.20
2023-03-03T05:08:50.486Z,23.55
2023-03-03T05:11:51.993Z,16.70
2023-03-03T05:14:53.465Z,15.07
2023-03-03T05:17:56.454Z,14.68
2023-03-03T05:20:58.178Z,16.15
2023-03-03T05:23:59.662Z,15.45
2023-03-03T05:27:01.129Z,16.40
2023-03-03T05:30:02.926Z,13.80
2023-03-03T05:33:05.048Z,14.88
2023-03-03T05:36:06.901Z,13.82
2023-03-03T05:39:08.427Z,12.47
2023-03-03T05:42:11.309Z,14.90
2023-03-03T05:45:13.009Z,13.95
2023-03-03T05:48:14.538Z,14.63
2023-03-03T05:51:16.011Z,15.88
2023-03-03T05:54:17.533Z,14.50
2023-03-03T05:57:19.055Z,15.43
2023-03-03T06:00:20.859Z,14.73
2023-03-03T06:03:22.496Z,15.37
2023-03-03T06:06:24.022Z,17.35
2023-03-03T06:09:26.308Z,17.83
2023-03-03T06:12:27.850Z,15.65
2023-03-03T06:15:29.398Z,16.45
2023-03-03T06:18:30.990Z,14.48
2023-03-03T06:21:32.489Z,14.38
2023-03-03T06:24:34.301Z,18.98
2023-03-03T06:27:35.795Z,20.53
2023-03-03T06:30:37.324Z,18.58
2023-03-03T06:33:38.999Z,17.55
2023-03-03T06:36:40.471Z,15.80
2023-03-03T06:39:41.984Z,14.77
2023-03-03T06:42:43.468Z,14.60
2023-03-03T06:45:45.616Z,19.73
2023-03-03T06:48:47.178Z,17.85
2023-03-03T06:51:48.702Z,16.67
2023-03-03T06:54:51.078Z,17.58
2023-03-03T06:57:55.791Z,26.80
2023-03-03T07:00:58.161Z,35.20
2023-03-03T07:03:59.712Z,28.08
2023-03-03T07:07:10.700Z,38.47
2023-03-03T07:10:27.886Z,32.33
2023-03-03T07:13:29.853Z,27.27
2023-03-03T07:16:31.410Z,20.90
2023-03-03T07:19:36.050Z,20.90
2023-03-03T07:22:37.518Z,18.88
2023-03-03T07:25:39.063Z,21.30
2023-03-03T07:29:14.383Z,21.98
2023-03-03T07:32:18.841Z,21.80
2023-03-03T07:35:41.026Z,27.42
2023-03-03T07:38:42.736Z,27.77
2023-03-03T07:41:44.225Z,24.40
2023-03-03T07:44:48.775Z,26.33
2023-03-03T07:47:50.257Z,25.33
2023-03-03T07:50:51.969Z,26.40
2023-03-03T07:53:55.272Z,17.85
2023-03-03T07:56:59.201Z,24.75
2023-03-03T08:00:19.128Z,22.48
2023-03-03T08:03:20.838Z,21.38
2023-03-03T08:06:47.193Z,18.67
2023-03-03T08:09:56.751Z,18.40
2023-03-03T08:12:58.744Z,17.08
2023-03-03T08:16:09.561Z,18.00
2023-03-03T08:19:11.316Z,18.55
2023-03-03T08:22:40.474Z,31.42
2023-03-03T08:25:42.460Z,22.55
2023-03-03T08:28:43.965Z,20.27
2023-03-03T08:31:45.488Z,21.88
2023-03-03T08:34:46.997Z,18.25
2023-03-03T08:37:48.466Z,15.95
2023-03-03T08:40:50.136Z,18.30
2023-03-03T08:43:51.797Z,15.60
2023-03-03T08:46:53.257Z,16.23
2023-03-03T08:49:54.875Z,18.33
2023-03-03T08:52:56.505Z,18.38
2023-03-03T08:55:58.219Z,17.83
2023-03-03T08:59:03.320Z,16.88
2023-03-03T09:02:06.309Z,17.85
2023-03-03T09:05:08.341Z,17.77
2023-03-03T09:08:10.724Z,18.27
2023-03-03T09:11:13.015Z,16.58
2023-03-03T09:14:15.913Z,15.70
2023-03-03T09:17:28.644Z,16.65
2023-03-03T09:20:43.954Z,15.43
2023-03-03T09:23:53.291Z,16.38
2023-03-03T09:26:55.125Z,17.60
2023-03-03T09:30:25.908Z,18.40
2023-03-03T09:33:33.366Z,17.65
2023-03-03T09:36:38.577Z,20.02
2023-03-03T09:39:40.068Z,18.15
2023-03-03T09:43:04.675Z,18.33
2023-03-03T09:46:24.453Z,18.13
2023-03-03T09:49:45.301Z,18.60
2023-03-03T09:52:50.699Z,19.25
2023-03-03T09:56:13.780Z,19.20
2023-03-03T09:59:39.744Z,18.35
2023-03-03T10:02:47.366Z,19.42
2023-03-03T10:06:11.820Z,19.05
2023-03-03T10:09:28.473Z,20.38
2023-03-03T10:12:36.805Z,18.83
2023-03-03T10:15:47.780Z,18.23
2023-03-03T10:19:02.312Z,19.83
2023-03-03T10:22:09.720Z,17.92
2023-03-03T10:25:22.544Z,18.23
2023-03-03T10:31:54.948Z,17.75
2023-03-03T10:35:08.533Z,19.35
2023-03-03T10:38:31.182Z,18.88
2023-03-03T10:41:44.239Z,19.77
2023-03-03T10:44:51.768Z,18.98
2023-03-03T10:48:03.290Z,21.83
2023-03-03T10:51:17.888Z,20.60
2023-03-03T10:54:43.407Z,21.55
2023-03-03T10:58:12.825Z,21.75
2023-03-03T11:01:39.318Z,20.08
2023-03-03T11:04:52.682Z,21.25
2023-03-03T11:08:26.010Z,20.55
2023-03-03T11:11:42.033Z,20.77
2023-03-03T11:14:49.130Z,19.77
2023-03-03T11:18:09.436Z,18.42
2023-03-03T11:21:22.635Z,21.85
2023-03-03T11:24:31.168Z,20.20
2023-03-03T11:27:55.578Z,19.73
2023-03-03T11:31:14.187Z,22.42
2023-03-03T11:34:15.611Z,20.58
2023-03-03T11:37:20.156Z,21.70
2023-03-03T11:40:36.317Z,20.65
2023-03-03T11:43:46.765Z,20.35
2023-03-03T11:47:39.911Z,22.25
2023-03-03T11:54:08.778Z,26.65
2023-03-03T11:57:27.209Z,25.40
2023-03-03T12:00:34.683Z,24.38
2023-03-03T12:03:45.490Z,27.42
2023-03-03T12:07:18.412Z,25.77
2023-03-03T12:10:53.071Z,24.52
2023-03-03T12:14:16.984Z,23.73
2023-03-03T12:17:56.133Z,24.52
2023-03-03T12:21:16.399Z,22.25
2023-03-03T12:24:24.460Z,25.05
2023-03-03T12:27:44.685Z,27.58
2023-03-03T12:31:18.218Z,24.58
2023-03-03T12:34:44.269Z,24.75
2023-03-03T12:38:23.172Z,25.13
2023-03-03T12:41:33.711Z,25.50
2023-03-03T12:44:42.744Z,24.92
2023-03-03T12:47:49.180Z,24.80
2023-03-03T12:51:25.554Z,26.02
2023-03-03T12:54:36.986Z,26.02
2023-03-03T12:58:12.717Z,26.40
2023-03-03T13:01:33.805Z,26.95
2023-03-03T13:04:39.253Z,26.77
2023-03-03T13:07:55.358Z,28.40
2023-03-03T13:11:01.849Z,28.20
2023-03-03T13:14:41.148Z,26.77
2023-03-03T13:17:58.457Z,28.00
2023-03-03T13:21:01.824Z,28.70
2023-03-03T13:24:16.089Z,26.02
2023-03-03T13:27:19.163Z,26.92
2023-03-03T13:30:23.283Z,27.17
2023-03-03T13:33:29.237Z,27.20
2023-03-03T13:36:35.327Z,26.23
2023-03-03T13:39:45.214Z,27.90
2023-03-03T13:42:55.697Z,27.48
2023-03-03T13:45:59.754Z,26.98
2023-03-03T13:49:17.057Z,27.35
2023-03-03T13:52:22.953Z,29.35
2023-03-03T13:55:41.831Z,31.92
2023-03-03T13:58:46.280Z,27.23
2023-03-03T14:01:55.794Z,27.83
2023-03-03T14:05:37.124Z,26.55
2023-03-03T14:09:00.427Z,27.02
2023-03-03T14:12:29.608Z,28.48
2023-03-03T14:15:45.062Z,25.67
2023-03-03T14:18:54.562Z,26.23
2023-03-03T14:22:16.236Z,24.27
2023-03-03T14:25:18.094Z,24.42
2023-03-03T14:28:21.492Z,26.88
2023-03-03T14:31:27.023Z,27.40
2023-03-03T14:34:37.034Z,24.20
2023-03-03T14:37:46.261Z,25.45
2023-03-03T14:40:47.968Z,29.77
2023-03-03T14:44:05.991Z,23.60
2023-03-03T14:47:10.476Z,23.67
2023-03-03T14:50:29.820Z,23.52
2023-03-03T14:53:38.663Z,24.52
2023-03-03T14:56:40.741Z,23.40
2023-03-03T15:00:10.691Z,20.95
2023-03-03T15:03:21.825Z,22.65
2023-03-03T15:06:36.848Z,20.63
2023-03-03T15:09:43.183Z,23.45
2023-03-03T15:12:45.003Z,20.73
2023-03-03T15:15:52.633Z,20.52
2023-03-03T15:19:30.849Z,20.92
2023-03-03T15:22:51.621Z,22.38
2023-03-03T15:26:00.802Z,22.02
2023-03-03T15:29:12.682Z,22.02
2023-03-03T15:32:19.343Z,20.75
2023-03-03T15:35:26.615Z,21.27
2023-03-03T15:38:35.580Z,18.83
2023-03-03T15:42:02.366Z,19.33
2023-03-03T15:45:37.610Z,18.25
2023-03-03T15:48:52.121Z,29.00
2023-03-03T15:52:03.683Z,22.75
2023-03-03T15:55:11.677Z,20.65
2023-03-03T15:58:33.951Z,20.70
2023-03-03T16:01:40.053Z,18.70
2023-03-03T16:04:49.858Z,20.27
2023-03-03T16:08:13.871Z,19.67
2023-03-03T16:11:21.914Z,20.30
2023-03-03T16:14:51.676Z,18.92
2023-03-03T16:18:11.879Z,19.25
2023-03-03T16:21:47.969Z,18.98
2023-03-03T16:25:24.942Z,19.17
2023-03-03T16:28:42.927Z,23.88
2023-03-03T16:31:50.005Z,28.58
2023-03-03T16:35:14.540Z,22.55
2023-03-03T16:38:27.392Z,20.65
2023-03-03T16:41:42.950Z,22.13
2023-03-03T16:45:09.409Z,17.33
2023-03-03T16:48:13.809Z,16.77
2023-03-03T16:51:30.710Z,17.73
2023-03-03T16:54:54.353Z,18.52
2023-03-03T16:58:12.851Z,18.20
2023-03-03T17:01:35.676Z,17.40
2023-03-03T17:08:01.720Z,17.58
2023-03-03T17:11:21.872Z,18.27
2023-03-03T17:14:53.081Z,23.35
2023-03-03T17:18:27.477Z,24.23
2023-03-03T17:22:06.687Z,27.00
2023-03-03T17:25:21.416Z,23.25
2023-03-03T17:28:30.488Z,22.90
2023-03-03T17:32:00.018Z,23.85
2023-03-03T17:35:20.451Z,23.15
2023-03-03T17:39:00.053Z,18.85
2023-03-03T17:42:10.620Z,17.33
2023-03-03T17:45:15.976Z,18.13
2023-03-03T17:48:23.550Z,16.45
2023-03-03T17:51:32.784Z,18.13
2023-03-03T17:54:37.969Z,21.85
2023-03-03T17:58:02.260Z,19.50
2023-03-03T18:01:07.136Z,19.42
2023-03-03T18:04:11.683Z,17.52
2023-03-03T18:07:22.199Z,16.65
2023-03-03T18:10:43.049Z,16.35
2023-03-03T18:14:07.625Z,15.82
2023-03-03T18:17:45.595Z,15.95
2023-03-03T18:21:02.134Z,16.40
2023-03-03T18:24:25.476Z,17.10
2023-03-03T18:27:34.870Z,17.10
2023-03-03T18:30:58.471Z,16.20
2023-03-03T18:34:08.609Z,15.02
2023-03-03T18:37:37.020Z,16.52
2023-03-03T18:40:48.250Z,14.75
2023-03-03T18:43:52.669Z,15.50
2023-03-03T18:46:54.542Z,16.00
2023-03-03T18:50:15.739Z,17.35
2023-03-03T18:53:29.939Z,17.63
2023-03-03T18:56:50.689Z,26.58
2023-03-03T18:59:58.332Z,18.45
2023-03-03T19:02:59.938Z,17.20
2023-03-03T19:06:02.560Z,16.38
2023-03-03T19:09:05.740Z,17.30
2023-03-03T19:12:11.064Z,19.60
2023-03-03T19:15:35.986Z,19.02
2023-03-03T19:19:04.059Z,17.42
2023-03-03T19:22:24.587Z,17.55
2023-03-03T19:25:27.460Z,17.45
2023-03-03T19:28:41.250Z,16.98
2023-03-03T19:32:04.620Z,15.20
2023-03-03T19:35:27.666Z,17.80
2023-03-03T19:42:01.648Z,15.52
2023-03-03T19:45:06.220Z,16.85
2023-03-03T19:48:33.738Z,16.52
2023-03-03T19:51:41.162Z,15.05
2023-03-03T19:54:51.620Z,15.30
2023-03-03T19:58:18.378Z,15.90
2023-03-03T20:01:51.971Z,16.00
2023-03-03T20:05:17.890Z,17.27
2023-03-03T20:08:34.406Z,16.25
2023-03-03T20:11:48.033Z,19.10
2023-03-03T20:15:06.358Z,16.30
2023-03-03T20:18:32.678Z,17.83
2023-03-03T20:21:49.221Z,16.17
2023-03-03T20:25:11.382Z,16.90
2023-03-03T20:28:32.958Z,18.47
2023-03-03T20:31:43.786Z,15.73
2023-03-03T20:35:04.039Z,15.23
2023-03-03T20:38:17.983Z,16.50
2023-03-03T20:41:42.840Z,17.35
2023-03-03T20:44:59.382Z,15.57
2023-03-03T20:48:16.556Z,15.02
2023-03-03T20:51:31.889Z,15.80
2023-03-03T20:54:37.041Z,17.50
2023-03-03T20:57:59.766Z,17.73
2023-03-03T21:01:07.355Z,18.40
2023-03-03T21:04:38.567Z,16.05
2023-03-03T21:07:56.524Z,18.35
2023-03-03T21:10:58.585Z,18.20
2023-03-03T21:14:00.962Z,18.27
2023-03-03T21:17:23.938Z,16.05
2023-03-03T21:20:32.736Z,16.63
2023-03-03T21:23:34.272Z,15.43
2023-03-03T21:26:58.011Z,16.27
2023-03-03T21:30:12.377Z,15.90
2023-03-03T21:33:43.824Z,15.75
2023-03-03T21:36:47.120Z,14.50
2023-03-03T21:39:50.719Z,14.45
2023-03-03T21:42:54.233Z,16.10
2023-03-03T21:45:55.788Z,14.73
2023-03-03T21:48:57.297Z,14.52
2023-03-03T21:51:58.875Z,13.68
2023-03-03T21:55:00.386Z,15.25
2023-03-03T21:58:01.955Z,15.57
2023-03-03T22:01:07.143Z,15.05
2023-03-03T22:04:08.627Z,16.13
2023-03-03T22:07:12.436Z,14.63
2023-03-03T22:10:13.952Z,14.70
2023-03-03T22:13:16.305Z,13.60
2023-03-03T22:16:17.916Z,14.60
2023-03-03T22:19:19.446Z,14.75
2023-03-03T22:22:20.911Z,15.30
2023-03-03T22:25:22.469Z,13.75
2023-03-03T22:28:24.266Z,16.65
2023-03-03T22:31:25.802Z,16.95
2023-03-03T22:34:27.312Z,18.02
2023-03-03T22:37:28.812Z,18.00
2023-03-03T22:40:30.429Z,21.42
2023-03-03T22:43:31.941Z,21.83
2023-03-03T22:46:33.587Z,17.15
2023-03-03T22:49:35.148Z,13.80
2023-03-03T22:52:36.671Z,15.70
2023-03-03T22:55:38.192Z,18.00
2023-03-03T22:58:39.687Z,19.17
2023-03-03T23:01:41.171Z,17.70
2023-03-03T23:04:42.697Z,14.60
2023-03-03T23:07:44.191Z,14.27
2023-03-03T23:10:46.000Z,14.48
2023-03-03T23:13:47.492Z,14.43
2023-03-03T23:16:49.102Z,15.95
2023-03-03T23:19:50.649Z,14.35
2023-03-03T23:22:52.296Z,13.32
2023-03-03T23:25:53.890Z,14.20
2023-03-03T23:28:55.396Z,13.77
2023-03-03T23:31:56.932Z,15.30
2023-03-03T23:34:58.449Z,14.50
2023-03-03T23:38:00.031Z,16.08
2023-03-03T23:41:01.563Z,14.75
2023-03-03T23:44:03.032Z,14.32
2023-03-03T23:47:05.158Z,13.02
2023-03-03T23:50:07.120Z,14.75
2023-03-03T23:53:08.682Z,13.27
2023-03-03T23:56:10.205Z,14.23
2023-03-03T23:59:11.660Z,16.10
